Here is the Quick Look data you requested

The Data originates at the National Weather Service, and is made available here by the UAlbany Department of Atmospheric and Environmental Sciences

Surface Observations

K1V4 271454Z AUTO 19/12 A2995 RMK AO1 SLP135 T01890122 58013=
KBTV 271454Z 21009KT 10SM FEW040 SCT200 21/12 A2994 RMK AO2 SLP137 T02060117
 58013=
KDDH 271454Z AUTO 17003KT 10SM FEW100 18/12 A2997 RMK AO2 SLP147 T01830122
 58015=
KEFK 271455Z AUTO 23005KT 10SM CLR 19/11 A2996 RMK AO2 T01880111=
KMPV 271451Z AUTO 17007KT 10SM CLR 17/12 A3001 RMK AO2 SLP161 T01720117 58006=
KMVL 271454Z AUTO VRB06KT 10SM FEW060 19/08 A2996 RMK AO2 SLP145 T01890083
 58014=
KRUT 271456Z AUTO 19004KT 10SM CLR 18/12 A2998 RMK AO2 SLP169 T01780117 58012 $=
KVSF 271454Z AUTO 00000KT 10SM CLR 17/12 A2999 RMK AO2 SLP156 T01720122 58011=